createdAt,value
2017-04-12T04:00:33.942Z,9.28
2017-04-12T04:00:59.473Z,9.46
2017-04-12T04:01:24.946Z,9.31
2017-04-12T04:01:50.399Z,9.46
2017-04-12T04:02:15.892Z,9.37
2017-04-12T04:02:41.420Z,9.28
2017-04-12T04:03:06.889Z,9.4
2017-04-12T04:03:32.418Z,9.41
2017-04-12T04:03:57.879Z,9.48
2017-04-12T04:04:23.368Z,9.4
2017-04-12T04:04:48.814Z,9.43
2017-04-12T04:05:14.303Z,9.4
2017-04-12T04:05:39.786Z,9.4
2017-04-12T04:06:05.293Z,9.31
2017-04-12T04:06:30.777Z,9.29
2017-04-12T04:06:56.268Z,9.28
2017-04-12T04:07:21.751Z,9.29
2017-04-12T04:07:47.231Z,9.29
2017-04-12T04:08:12.736Z,9.26
2017-04-12T04:08:38.255Z,9.31
2017-04-12T04:09:03.737Z,9.26
2017-04-12T04:09:29.297Z,9.28
2017-04-12T04:09:54.795Z,9.31
2017-04-12T04:10:20.277Z,9.34
2017-04-12T04:10:45.745Z,9.29
2017-04-12T04:11:11.240Z,9.23
2017-04-12T04:11:36.711Z,9.29
2017-04-12T04:12:02.188Z,9.26
2017-04-12T04:12:27.679Z,9.34
2017-04-12T04:12:53.171Z,9.31
2017-04-12T04:13:18.669Z,9.31
2017-04-12T04:13:44.219Z,9.31
2017-04-12T04:14:09.725Z,9.28
2017-04-12T04:14:35.214Z,9.29
2017-04-12T04:15:00.699Z,9.34
2017-04-12T04:15:26.194Z,9.31
2017-04-12T04:15:51.717Z,9.34
2017-04-12T04:16:17.212Z,9.29
2017-04-12T04:16:42.685Z,9.36
2017-04-12T04:17:08.168Z,9.26
2017-04-12T04:17:33.654Z,9.31
2017-04-12T04:17:59.145Z,9.31
2017-04-12T04:18:24.645Z,9.28
2017-04-12T04:18:50.104Z,9.32
2017-04-12T04:19:15.575Z,9.28
2017-04-12T04:19:41.063Z,9.28
2017-04-12T04:20:06.549Z,9.29
2017-04-12T04:20:32.018Z,9.29
2017-04-12T04:20:57.535Z,9.23
2017-04-12T04:21:23.009Z,9.26
2017-04-12T04:21:48.473Z,9.25
2017-04-12T04:22:13.970Z,9.36
2017-04-12T04:22:39.421Z,9.28
2017-04-12T04:23:04.891Z,9.25
2017-04-12T04:23:30.370Z,9.26
2017-04-12T04:23:55.866Z,9.37
2017-04-12T04:24:21.361Z,9.32
2017-04-12T04:24:46.824Z,9.32
2017-04-12T04:25:12.322Z,9.32
2017-04-12T04:25:37.780Z,9.34
2017-04-12T04:26:03.297Z,9.26
2017-04-12T04:26:28.766Z,9.22
2017-04-12T04:26:54.238Z,9.32
2017-04-12T04:27:19.745Z,9.29
2017-04-12T04:27:45.217Z,9.26
2017-04-12T04:28:10.716Z,9.23
2017-04-12T04:28:36.229Z,9.25
2017-04-12T04:29:01.684Z,9.22
2017-04-12T04:29:27.195Z,9.23
2017-04-12T04:29:52.701Z,9.25
2017-04-12T04:30:18.173Z,9.28
2017-04-12T04:30:43.640Z,9.23
2017-04-12T04:31:09.179Z,9.18
2017-04-12T04:31:34.687Z,9.19
2017-04-12T04:32:00.190Z,9.29
2017-04-12T04:32:25.661Z,9.28
2017-04-12T04:32:51.140Z,9.28
2017-04-12T04:33:16.618Z,9.26
2017-04-12T04:33:42.107Z,9.28
2017-04-12T04:34:07.579Z,9.22
2017-04-12T04:34:33.065Z,9.26
2017-04-12T04:34:58.565Z,9.25
2017-04-12T04:35:24.039Z,9.23
2017-04-12T04:35:49.560Z,9.22
2017-04-12T04:36:15.063Z,9.23
2017-04-12T04:36:40.544Z,9.28
2017-04-12T04:37:06.052Z,9.36
2017-04-12T04:37:31.541Z,9.23
2017-04-12T04:37:57.019Z,9.29
2017-04-12T04:38:22.490Z,9.34
2017-04-12T04:38:47.977Z,9.32
2017-04-12T04:39:13.463Z,9.28
2017-04-12T04:39:38.943Z,9.21
2017-04-12T04:40:04.424Z,9.28
2017-04-12T04:40:29.905Z,9.26
2017-04-12T04:40:55.373Z,9.28
2017-04-12T04:41:20.876Z,9.25
2017-04-12T04:41:46.382Z,9.25
2017-04-12T04:42:11.863Z,9.28
2017-04-12T04:42:37.361Z,9.28
2017-04-12T04:43:02.843Z,9.25
2017-04-12T04:43:28.321Z,9.25
2017-04-12T04:43:53.805Z,9.19
2017-04-12T04:44:19.294Z,9.21
2017-04-12T04:44:44.762Z,9.25
2017-04-12T04:45:10.239Z,9.25
2017-04-12T04:45:35.774Z,9.22
2017-04-12T04:46:01.304Z,9.21
2017-04-12T04:46:26.864Z,9.21
2017-04-12T04:46:52.354Z,9.26
2017-04-12T04:47:17.826Z,9.22
2017-04-12T04:47:43.303Z,9.23
2017-04-12T04:48:08.829Z,9.26
2017-04-12T04:48:34.296Z,9.18
2017-04-12T04:48:59.778Z,9.28
2017-04-12T04:49:25.277Z,9.26
2017-04-12T04:49:50.725Z,9.19
2017-04-12T04:50:16.219Z,9.26
2017-04-12T04:50:41.688Z,9.22
2017-04-12T04:51:07.171Z,9.21
2017-04-12T04:51:32.657Z,9.26
2017-04-12T04:51:58.193Z,9.21
2017-04-12T04:52:23.719Z,9.29
2017-04-12T04:52:49.232Z,9.22
2017-04-12T04:53:14.758Z,9.23
2017-04-12T04:53:40.251Z,9.23
2017-04-12T04:54:05.740Z,9.22
2017-04-12T04:54:31.224Z,9.26
2017-04-12T04:54:56.716Z,9.22
2017-04-12T04:55:22.203Z,9.31
2017-04-12T04:55:47.688Z,9.25
2017-04-12T04:56:13.203Z,9.26
2017-04-12T04:56:38.695Z,9.25
2017-04-12T04:57:04.211Z,9.29
2017-04-12T04:57:29.700Z,9.25
2017-04-12T04:57:55.183Z,9.26
2017-04-12T04:58:20.657Z,9.31
2017-04-12T04:58:46.130Z,9.26
2017-04-12T04:59:11.624Z,9.28
2017-04-12T04:59:37.097Z,9.36
2017-04-12T05:00:02.595Z,9.21
2017-04-12T05:00:28.082Z,9.25
2017-04-12T05:00:53.559Z,9.26
2017-04-12T05:01:19.067Z,9.29
2017-04-12T05:01:44.552Z,9.29
2017-04-12T05:02:10.037Z,9.29
2017-04-12T05:02:35.504Z,9.28
2017-04-12T05:03:01.004Z,9.29
2017-04-12T05:03:26.476Z,9.28
2017-04-12T05:03:51.961Z,9.34
2017-04-12T05:04:17.444Z,9.32
2017-04-12T05:04:42.963Z,9.31
2017-04-12T05:05:08.454Z,9.32
2017-04-12T05:05:33.957Z,9.28
2017-04-12T05:05:59.458Z,9.26
2017-04-12T05:06:24.941Z,9.36
2017-04-12T05:06:50.425Z,9.28
2017-04-12T05:07:15.926Z,9.23
2017-04-12T05:07:41.419Z,9.28
2017-04-12T05:08:06.911Z,9.31
2017-04-12T05:08:32.414Z,9.31
2017-04-12T05:08:57.915Z,9.31
2017-04-12T05:09:23.381Z,9.36
2017-04-12T05:09:48.874Z,9.29
2017-04-12T05:10:14.371Z,9.26
2017-04-12T05:10:39.891Z,9.28
2017-04-12T05:11:05.354Z,9.25
2017-04-12T05:11:30.852Z,9.29
2017-04-12T05:11:56.356Z,9.26
2017-04-12T05:12:21.840Z,9.22
2017-04-12T05:12:47.349Z,9.34
2017-04-12T05:13:12.828Z,9.22
2017-04-12T05:13:38.306Z,9.23
2017-04-12T05:14:03.786Z,9.28
2017-04-12T05:14:29.287Z,9.23
2017-04-12T05:14:54.767Z,9.31
2017-04-12T05:15:20.248Z,9.28
2017-04-12T05:15:45.759Z,9.34
2017-04-12T05:16:11.166Z,9.37
2017-04-12T05:16:36.659Z,9.39
2017-04-12T05:17:02.141Z,9.34
2017-04-12T05:17:27.608Z,9.44
2017-04-12T05:17:53.109Z,9.36
2017-04-12T05:18:18.586Z,9.29
2017-04-12T05:18:44.073Z,9.28
2017-04-12T05:19:09.554Z,9.26
2017-04-12T05:19:35.062Z,9.31
2017-04-12T05:20:00.516Z,9.25
2017-04-12T05:20:25.973Z,9.28
2017-04-12T05:20:51.483Z,9.29
2017-04-12T05:21:16.963Z,9.29
2017-04-12T05:21:42.429Z,9.25
2017-04-12T05:22:07.899Z,9.34
2017-04-12T05:22:33.406Z,9.23
2017-04-12T05:22:58.908Z,9.29
2017-04-12T05:23:24.400Z,9.34
2017-04-12T05:23:49.892Z,9.43
2017-04-12T05:24:15.371Z,9.4
2017-04-12T05:24:40.858Z,9.37
2017-04-12T05:25:06.351Z,9.41
2017-04-12T05:25:31.821Z,9.36
2017-04-12T05:25:57.306Z,9.43
2017-04-12T05:26:22.796Z,9.39
2017-04-12T05:26:48.301Z,9.28
2017-04-12T05:27:13.773Z,9.41
2017-04-12T05:27:39.272Z,9.43
2017-04-12T05:28:04.761Z,9.44
2017-04-12T05:28:30.265Z,9.36
2017-04-12T05:28:55.752Z,9.37
2017-04-12T05:29:21.251Z,9.41
2017-04-12T05:29:46.755Z,9.4
2017-04-12T05:30:12.197Z,9.44
2017-04-12T05:30:37.684Z,9.44
2017-04-12T05:31:03.160Z,9.48
2017-04-12T05:31:28.635Z,9.43
2017-04-12T05:31:54.117Z,9.4
2017-04-12T05:32:19.617Z,9.43
2017-04-12T05:32:45.092Z,9.39
2017-04-12T05:33:10.562Z,9.39
2017-04-12T05:33:36.023Z,9.41
2017-04-12T05:34:01.509Z,9.41
2017-04-12T05:34:26.989Z,9.47
2017-04-12T05:34:52.467Z,9.41
2017-04-12T05:35:17.935Z,9.43
2017-04-12T05:35:43.418Z,9.36
2017-04-12T05:36:08.908Z,9.44
2017-04-12T05:36:34.385Z,9.41
2017-04-12T05:36:59.893Z,9.48
2017-04-12T05:37:25.362Z,9.43
2017-04-12T05:37:50.838Z,9.46
2017-04-12T05:38:16.331Z,9.46
2017-04-12T05:38:41.826Z,9.41
2017-04-12T05:39:07.298Z,9.4
2017-04-12T05:39:32.762Z,9.47
2017-04-12T05:39:58.243Z,9.41
2017-04-12T05:40:23.753Z,9.48
2017-04-12T05:40:49.222Z,9.43
2017-04-12T05:41:14.726Z,9.43
2017-04-12T05:41:40.198Z,9.43
2017-04-12T05:42:05.680Z,9.44
2017-04-12T05:42:31.172Z,9.46
2017-04-12T05:42:56.631Z,9.44
2017-04-12T05:43:22.120Z,9.46
2017-04-12T05:43:47.596Z,9.46
2017-04-12T05:44:13.077Z,9.54
2017-04-12T05:44:38.572Z,9.41
2017-04-12T05:45:04.039Z,9.46
2017-04-12T05:45:29.549Z,9.5
2017-04-12T05:45:55.020Z,9.46
2017-04-12T05:46:20.523Z,9.4
2017-04-12T05:46:46.003Z,9.4
2017-04-12T05:47:11.472Z,9.46
2017-04-12T05:47:36.949Z,9.37
2017-04-12T05:48:02.423Z,9.44
2017-04-12T05:48:27.918Z,9.43
2017-04-12T05:48:53.424Z,9.44
2017-04-12T05:49:18.896Z,9.41
2017-04-12T05:49:44.379Z,9.47
2017-04-12T05:50:09.841Z,9.47
2017-04-12T05:50:35.315Z,9.41
2017-04-12T05:51:00.790Z,9.46
2017-04-12T05:51:26.267Z,9.4
2017-04-12T05:51:51.757Z,9.4
2017-04-12T05:52:17.239Z,9.46
2017-04-12T05:52:42.772Z,9.48
2017-04-12T05:53:08.265Z,9.46
2017-04-12T05:53:33.745Z,9.41
2017-04-12T05:53:59.244Z,9.61
2017-04-12T05:54:24.726Z,9.51
2017-04-12T05:54:50.211Z,9.5
2017-04-12T05:55:15.690Z,9.46
2017-04-12T05:55:41.186Z,9.46
2017-04-12T05:56:06.662Z,9.4
2017-04-12T05:56:32.165Z,9.41
2017-04-12T05:56:57.662Z,9.47
2017-04-12T05:57:23.161Z,9.47
2017-04-12T05:57:48.618Z,9.46
2017-04-12T05:58:14.088Z,9.46
2017-04-12T05:58:39.566Z,9.47
2017-04-12T05:59:05.050Z,9.46
2017-04-12T05:59:30.514Z,9.39
2017-04-12T05:59:55.992Z,9.39
2017-04-12T06:00:21.464Z,9.44
2017-04-12T06:00:46.957Z,9.48
2017-04-12T06:01:12.463Z,9.4
2017-04-12T06:01:37.932Z,9.48
2017-04-12T06:02:03.436Z,9.46
2017-04-12T06:02:28.945Z,9.44
2017-04-12T06:02:54.468Z,9.55
2017-04-12T06:03:19.935Z,9.44
2017-04-12T06:03:45.441Z,9.51
2017-04-12T06:04:10.926Z,9.44
2017-04-12T06:04:36.411Z,9.51
2017-04-12T06:05:01.910Z,9.58
2017-04-12T06:05:27.379Z,9.43
2017-04-12T06:05:52.865Z,9.47
2017-04-12T06:06:18.343Z,9.44
2017-04-12T06:06:43.841Z,9.48
2017-04-12T06:07:09.312Z,9.48
2017-04-12T06:07:34.782Z,9.47
2017-04-12T06:08:00.272Z,9.55
2017-04-12T06:08:25.795Z,9.47
2017-04-12T06:08:51.279Z,9.58
2017-04-12T06:09:16.727Z,9.46
2017-04-12T06:09:42.212Z,9.5
2017-04-12T06:10:07.706Z,9.62
2017-04-12T06:10:33.178Z,9.54
2017-04-12T06:10:58.669Z,9.55
2017-04-12T06:11:24.140Z,9.54
2017-04-12T06:11:49.627Z,9.54
2017-04-12T06:12:15.103Z,9.56
2017-04-12T06:12:40.603Z,9.55
2017-04-12T06:13:06.094Z,9.56
2017-04-12T06:13:31.545Z,9.58
2017-04-12T06:13:57.007Z,9.62
2017-04-12T06:14:22.476Z,9.68
2017-04-12T06:14:47.960Z,9.58
2017-04-12T06:15:13.434Z,9.55
2017-04-12T06:15:38.924Z,9.66
2017-04-12T06:16:04.395Z,9.68
2017-04-12T06:16:29.891Z,9.68
2017-04-12T06:16:55.372Z,9.73
2017-04-12T06:17:20.850Z,9.69
2017-04-12T06:17:46.337Z,9.64
2017-04-12T06:18:11.808Z,9.66
2017-04-12T06:18:37.274Z,9.64
2017-04-12T06:19:02.765Z,9.66
2017-04-12T06:19:28.261Z,9.66
2017-04-12T06:19:53.722Z,9.65
2017-04-12T06:20:19.219Z,9.64
2017-04-12T06:20:44.696Z,9.65
2017-04-12T06:21:10.184Z,9.68
2017-04-12T06:21:35.644Z,9.62
2017-04-12T06:22:01.120Z,9.56
2017-04-12T06:22:26.608Z,9.61
2017-04-12T06:22:52.113Z,9.58
2017-04-12T06:23:17.590Z,9.62
2017-04-12T06:23:43.093Z,9.73
2017-04-12T06:24:08.580Z,9.73
2017-04-12T06:24:34.057Z,9.69
2017-04-12T06:24:59.527Z,9.72
2017-04-12T06:25:25.003Z,9.69
2017-04-12T06:25:50.492Z,9.62
2017-04-12T06:26:16.015Z,9.62
2017-04-12T06:26:41.504Z,9.66
2017-04-12T06:27:07.035Z,9.69
2017-04-12T06:27:32.506Z,9.76
2017-04-12T06:27:58.000Z,9.74
2017-04-12T06:28:23.496Z,9.76
2017-04-12T06:28:48.996Z,9.8
2017-04-12T06:29:14.504Z,9.86
2017-04-12T06:29:40.007Z,9.84
2017-04-12T06:30:05.505Z,9.76
2017-04-12T06:30:31.004Z,9.84
2017-04-12T06:30:56.494Z,9.76
2017-04-12T06:31:22.002Z,9.77
2017-04-12T06:31:47.527Z,9.82
2017-04-12T06:32:13.015Z,9.8
2017-04-12T06:32:38.493Z,9.73
2017-04-12T06:33:03.966Z,9.86
2017-04-12T06:33:29.464Z,9.74
2017-04-12T06:33:54.927Z,9.69
2017-04-12T06:34:20.414Z,9.79
2017-04-12T06:34:45.900Z,9.79
2017-04-12T06:35:11.382Z,9.73
2017-04-12T06:35:36.876Z,9.79
2017-04-12T06:36:02.361Z,9.82
2017-04-12T06:36:27.857Z,9.82
2017-04-12T06:36:53.367Z,9.77
2017-04-12T06:37:18.857Z,9.8
2017-04-12T06:37:44.363Z,9.86
2017-04-12T06:38:09.838Z,9.77
2017-04-12T06:38:35.328Z,9.89
2017-04-12T06:39:00.851Z,9.91
2017-04-12T06:39:26.337Z,9.87
2017-04-12T06:39:51.813Z,9.92
2017-04-12T06:40:17.315Z,9.89
2017-04-12T06:40:42.823Z,9.87
2017-04-12T06:41:08.297Z,9.89
2017-04-12T06:41:33.814Z,9.82
2017-04-12T06:41:59.292Z,9.84
2017-04-12T06:42:24.760Z,9.94
2017-04-12T06:42:50.260Z,9.94
2017-04-12T06:43:15.787Z,9.83
2017-04-12T06:43:41.295Z,9.92
2017-04-12T06:44:06.813Z,9.89
2017-04-12T06:44:32.302Z,9.79
2017-04-12T06:44:57.787Z,9.95
2017-04-12T06:45:23.327Z,9.89
2017-04-12T06:45:48.781Z,9.92
2017-04-12T06:46:14.280Z,9.89
2017-04-12T06:46:39.765Z,9.97
2017-04-12T06:47:05.259Z,9.84
2017-04-12T06:47:30.767Z,9.91
2017-04-12T06:47:56.285Z,9.94
2017-04-12T06:48:21.779Z,9.86
2017-04-12T06:48:47.237Z,9.98
2017-04-12T06:49:12.723Z,9.87
2017-04-12T06:49:38.245Z,9.98
2017-04-12T06:50:03.745Z,10.12
2017-04-12T06:50:29.241Z,10.09
2017-04-12T06:50:54.738Z,10.01
2017-04-12T06:51:20.237Z,10.05
2017-04-12T06:51:45.722Z,10.05
2017-04-12T06:52:11.196Z,9.95
2017-04-12T06:52:36.727Z,10.07
2017-04-12T06:53:02.214Z,9.89
2017-04-12T06:53:27.678Z,10.02
2017-04-12T06:53:53.161Z,10.01
2017-04-12T06:54:18.639Z,9.91
2017-04-12T06:54:44.153Z,9.89
2017-04-12T06:55:09.652Z,10.05
2017-04-12T06:55:35.152Z,9.92
2017-04-12T06:56:00.641Z,9.92
2017-04-12T06:56:26.122Z,9.89
2017-04-12T06:56:51.601Z,9.89
2017-04-12T06:57:17.108Z,9.91
2017-04-12T06:57:42.608Z,9.91
2017-04-12T06:58:08.067Z,9.91
2017-04-12T06:58:33.549Z,9.89
2017-04-12T06:58:59.044Z,9.89
2017-04-12T06:59:24.517Z,9.89
2017-04-12T06:59:50.025Z,9.91
2017-04-12T07:00:15.526Z,9.98
2017-04-12T07:00:41.008Z,9.94
2017-04-12T07:01:06.517Z,9.91
2017-04-12T07:01:32.008Z,9.97
2017-04-12T07:01:57.498Z,9.87
2017-04-12T07:02:23.064Z,10.02
2017-04-12T07:02:48.534Z,9.91
2017-04-12T07:03:14.010Z,10.04
2017-04-12T07:03:39.497Z,9.91
2017-04-12T07:04:04.996Z,10.05
2017-04-12T07:04:30.487Z,9.98
2017-04-12T07:04:55.996Z,10.05
2017-04-12T07:05:21.481Z,10.1
2017-04-12T07:05:46.944Z,10.05
2017-04-12T07:06:12.431Z,10.02
2017-04-12T07:06:37.912Z,10.09
2017-04-12T07:07:03.425Z,10.04
2017-04-12T07:07:28.912Z,10.02
2017-04-12T07:07:54.398Z,10.05
2017-04-12T07:08:19.907Z,10.09
2017-04-12T07:08:45.406Z,10.05
2017-04-12T07:09:10.903Z,10.07
2017-04-12T07:09:36.393Z,10.09
2017-04-12T07:10:01.910Z,10.19
2017-04-12T07:10:27.385Z,10.2
2017-04-12T07:10:52.875Z,10.13
2017-04-12T07:11:18.374Z,10.23
2017-04-12T07:11:43.923Z,10.19
2017-04-12T07:12:09.430Z,10.31
2017-04-12T07:12:34.904Z,10.3
2017-04-12T07:13:00.458Z,10.25
2017-04-12T07:13:25.938Z,10.23
2017-04-12T07:13:51.449Z,10.26
2017-04-12T07:14:16.941Z,10.3
2017-04-12T07:14:42.429Z,10.35
2017-04-12T07:15:07.904Z,10.25
2017-04-12T07:15:33.427Z,10.37
2017-04-12T07:15:58.882Z,10.35
2017-04-12T07:16:24.371Z,10.4
2017-04-12T07:16:49.830Z,10.35
2017-04-12T07:17:15.336Z,10.37
2017-04-12T07:17:40.820Z,10.4
2017-04-12T07:18:06.319Z,10.41
2017-04-12T07:18:31.818Z,10.28
2017-04-12T07:18:57.303Z,10.4
2017-04-12T07:19:22.767Z,10.38
2017-04-12T07:19:48.260Z,10.3
2017-04-12T07:20:13.792Z,10.38
2017-04-12T07:20:39.306Z,10.41
2017-04-12T07:21:04.807Z,10.4
2017-04-12T07:21:30.299Z,10.48
2017-04-12T07:21:55.784Z,10.46
2017-04-12T07:22:21.274Z,10.4
2017-04-12T07:22:46.773Z,10.38
2017-04-12T07:23:12.264Z,10.42
2017-04-12T07:23:37.784Z,10.42
2017-04-12T07:24:03.283Z,10.42
2017-04-12T07:24:28.781Z,10.46
2017-04-12T07:24:54.273Z,10.48
2017-04-12T07:25:19.747Z,10.51
2017-04-12T07:25:45.257Z,10.51
2017-04-12T07:26:10.745Z,10.51
2017-04-12T07:26:36.227Z,10.51
2017-04-12T07:27:01.708Z,10.49
2017-04-12T07:27:27.242Z,10.51
2017-04-12T07:27:52.742Z,10.51
2017-04-12T07:28:18.243Z,10.53
2017-04-12T07:28:43.766Z,10.51
2017-04-12T07:29:09.248Z,10.61
2017-04-12T07:29:34.759Z,10.6
2017-04-12T07:30:00.254Z,10.6
2017-04-12T07:30:25.749Z,10.53
2017-04-12T07:30:51.241Z,10.53
2017-04-12T07:31:16.773Z,10.54
2017-04-12T07:31:42.243Z,10.53
2017-04-12T07:32:07.746Z,10.46
2017-04-12T07:32:33.239Z,10.38
2017-04-12T07:32:58.736Z,10.49
2017-04-12T07:33:24.236Z,10.44
2017-04-12T07:33:49.708Z,10.48
2017-04-12T07:34:15.233Z,10.54
2017-04-12T07:34:40.710Z,10.46
2017-04-12T07:35:06.248Z,10.44
2017-04-12T07:35:31.687Z,10.51
2017-04-12T07:35:57.158Z,10.57
2017-04-12T07:36:22.633Z,10.53
2017-04-12T07:36:48.128Z,10.54
2017-04-12T07:37:13.615Z,10.57
2017-04-12T07:37:39.108Z,10.53
2017-04-12T07:38:04.611Z,10.48
2017-04-12T07:38:30.143Z,10.44
2017-04-12T07:38:55.649Z,10.51
2017-04-12T07:39:21.122Z,10.42
2017-04-12T07:39:46.647Z,10.38
2017-04-12T07:40:12.135Z,10.38
2017-04-12T07:40:37.623Z,10.42
2017-04-12T07:41:03.122Z,10.44
2017-04-12T07:41:28.620Z,10.42
2017-04-12T07:41:54.169Z,10.46
2017-04-12T07:42:19.691Z,10.51
2017-04-12T07:42:45.236Z,10.56
2017-04-12T07:43:10.716Z,10.53
2017-04-12T07:43:36.213Z,10.56
2017-04-12T07:44:01.707Z,10.54
2017-04-12T07:44:27.208Z,10.57
2017-04-12T07:44:52.676Z,10.57
2017-04-12T07:45:18.199Z,10.71
2017-04-12T07:45:43.652Z,10.59
2017-04-12T07:46:09.132Z,10.6
2017-04-12T07:46:34.661Z,10.61
2017-04-12T07:47:00.143Z,10.67
2017-04-12T07:47:25.620Z,10.71
2017-04-12T07:47:51.100Z,10.61
2017-04-12T07:48:16.614Z,10.64
2017-04-12T07:48:42.102Z,10.57
2017-04-12T07:49:07.567Z,10.67
2017-04-12T07:49:33.062Z,10.63
2017-04-12T07:49:58.538Z,10.6
2017-04-12T07:50:24.026Z,10.59
2017-04-12T07:50:49.481Z,10.67
2017-04-12T07:51:14.968Z,10.71
2017-04-12T07:51:40.461Z,10.69
2017-04-12T07:52:05.943Z,10.69
2017-04-12T07:52:31.417Z,10.74
2017-04-12T07:52:56.896Z,10.74
2017-04-12T07:53:22.378Z,10.69
2017-04-12T07:53:47.875Z,10.74
2017-04-12T07:54:13.361Z,10.71
2017-04-12T07:54:38.835Z,10.67
2017-04-12T07:55:04.324Z,10.75
2017-04-12T07:55:29.814Z,10.72
2017-04-12T07:55:55.305Z,10.67
2017-04-12T07:56:20.776Z,10.75
2017-04-12T07:56:46.255Z,10.64
2017-04-12T07:57:11.746Z,10.74
2017-04-12T07:57:37.250Z,10.75
2017-04-12T07:58:02.723Z,10.81
2017-04-12T07:58:28.208Z,10.78
2017-04-12T07:58:53.691Z,10.81
2017-04-12T07:59:19.182Z,10.75
2017-04-12T07:59:44.670Z,10.81
2017-04-12T08:00:10.156Z,10.79
2017-04-12T08:00:35.664Z,10.71
2017-04-12T08:01:01.167Z,10.78
2017-04-12T08:01:26.655Z,10.79
2017-04-12T08:01:52.129Z,10.86
2017-04-12T08:02:17.629Z,10.87
2017-04-12T08:02:43.115Z,10.86
2017-04-12T08:03:08.604Z,10.86
2017-04-12T08:03:34.096Z,10.93
2017-04-12T08:03:59.597Z,10.97
2017-04-12T08:04:25.087Z,10.97
2017-04-12T08:05:18.514Z,10.9
2017-04-12T08:05:43.978Z,10.94
2017-04-12T08:06:09.469Z,10.84
2017-04-12T08:06:34.957Z,11.02
2017-04-12T08:07:00.428Z,10.9
2017-04-12T08:07:25.918Z,10.97
2017-04-12T08:07:51.391Z,10.99
2017-04-12T08:08:16.877Z,11.05
2017-04-12T08:08:42.347Z,10.93
2017-04-12T08:09:07.841Z,11.04
2017-04-12T08:09:33.314Z,11.1
2017-04-12T08:09:58.783Z,11.07
2017-04-12T08:10:24.283Z,11
2017-04-12T08:10:49.762Z,11.05
2017-04-12T08:11:15.287Z,11.04
2017-04-12T08:11:40.799Z,11.11
2017-04-12T08:12:06.244Z,11.11
2017-04-12T08:12:31.741Z,11.11
2017-04-12T08:12:57.244Z,11.1
2017-04-12T08:13:22.725Z,11.18
2017-04-12T08:13:48.239Z,11.19
2017-04-12T08:14:13.793Z,11.17
2017-04-12T08:14:39.274Z,11.22
2017-04-12T08:15:04.762Z,11.32
2017-04-12T08:15:30.222Z,11.26
2017-04-12T08:15:55.702Z,11.25
2017-04-12T08:16:21.235Z,11.33
2017-04-12T08:16:46.726Z,11.35
2017-04-12T08:17:12.258Z,11.3
2017-04-12T08:17:37.763Z,11.36
2017-04-12T08:18:03.257Z,11.29
2017-04-12T08:18:28.753Z,11.25
2017-04-12T08:18:54.226Z,11.22
2017-04-12T08:19:19.740Z,11.22
2017-04-12T08:19:45.222Z,11.17
2017-04-12T08:20:10.782Z,11.23
2017-04-12T08:20:36.302Z,11.19
2017-04-12T08:21:01.810Z,11.19
2017-04-12T08:21:27.351Z,11.22
2017-04-12T08:21:52.830Z,11.18
2017-04-12T08:22:18.332Z,11.15
2017-04-12T08:22:43.800Z,11.14
2017-04-12T08:23:09.304Z,11.1
2017-04-12T08:23:34.795Z,11.19
2017-04-12T08:24:00.337Z,11.18
2017-04-12T08:24:25.847Z,11.14
2017-04-12T08:24:51.291Z,11.22
2017-04-12T08:25:16.754Z,11.23
2017-04-12T08:25:42.280Z,11.22
2017-04-12T08:26:07.711Z,11.25
2017-04-12T08:26:33.234Z,11.22
2017-04-12T08:26:58.703Z,11.25
2017-04-12T08:27:24.173Z,11.22
2017-04-12T08:27:49.650Z,11.22
2017-04-12T08:28:15.186Z,11.3
2017-04-12T08:28:40.626Z,11.32
2017-04-12T08:29:06.100Z,11.27
2017-04-12T08:29:31.608Z,11.3
2017-04-12T08:29:57.103Z,11.3
2017-04-12T08:30:22.580Z,11.29
2017-04-12T08:30:48.123Z,11.33
2017-04-12T08:31:13.609Z,11.36
2017-04-12T08:31:39.101Z,11.4
2017-04-12T08:32:04.589Z,11.37
2017-04-12T08:32:30.064Z,11.32
2017-04-12T08:32:55.571Z,11.32
2017-04-12T08:33:21.046Z,11.44
2017-04-12T08:33:46.548Z,11.33
2017-04-12T08:34:12.035Z,11.4
2017-04-12T08:34:37.589Z,11.32
2017-04-12T08:35:03.080Z,11.4
2017-04-12T08:35:28.555Z,11.29
2017-04-12T08:35:54.055Z,11.32
2017-04-12T08:36:19.518Z,11.33
2017-04-12T08:36:44.983Z,11.33
2017-04-12T08:37:10.464Z,11.37
2017-04-12T08:37:35.936Z,11.4
2017-04-12T08:38:01.437Z,11.36
2017-04-12T08:38:26.981Z,11.37
2017-04-12T08:38:52.477Z,11.33
2017-04-12T08:39:17.941Z,11.48
2017-04-12T08:39:43.492Z,11.47
2017-04-12T08:40:09.009Z,11.48
2017-04-12T08:40:34.486Z,11.41
2017-04-12T08:40:59.979Z,11.52
2017-04-12T08:41:25.487Z,11.41
2017-04-12T08:41:50.962Z,11.48
2017-04-12T08:42:16.474Z,11.48
2017-04-12T08:42:41.954Z,11.51
2017-04-12T08:43:07.436Z,11.57
2017-04-12T08:43:32.953Z,11.57
2017-04-12T08:43:58.469Z,11.6
2017-04-12T08:44:23.985Z,11.59
2017-04-12T08:44:49.462Z,11.62
2017-04-12T08:45:14.968Z,11.6
2017-04-12T08:45:40.466Z,11.66
2017-04-12T08:46:05.961Z,11.65
2017-04-12T08:46:31.474Z,11.63
2017-04-12T08:46:56.970Z,11.63
2017-04-12T08:47:22.472Z,11.65
2017-04-12T08:47:47.954Z,11.6
2017-04-12T08:48:13.461Z,11.66
2017-04-12T08:48:38.937Z,11.72
2017-04-12T08:49:04.440Z,11.66
2017-04-12T08:49:29.913Z,11.75
2017-04-12T08:49:55.421Z,11.7
2017-04-12T08:50:20.907Z,11.66
2017-04-12T08:50:46.401Z,11.72
2017-04-12T08:51:11.857Z,11.66
2017-04-12T08:51:37.381Z,11.65
2017-04-12T08:52:02.864Z,11.55
2017-04-12T08:52:28.364Z,11.6
2017-04-12T08:52:53.833Z,11.62
2017-04-12T08:53:19.327Z,11.65
2017-04-12T08:53:44.812Z,11.63
2017-04-12T08:54:10.327Z,11.63
2017-04-12T08:54:35.816Z,11.51
2017-04-12T08:55:01.323Z,11.65
2017-04-12T08:55:26.822Z,11.66
2017-04-12T08:55:52.339Z,11.63
2017-04-12T08:56:17.808Z,11.6
2017-04-12T08:56:43.356Z,11.62
2017-04-12T08:57:08.856Z,11.66
2017-04-12T08:57:34.315Z,11.66
2017-04-12T08:57:59.806Z,11.65
2017-04-12T08:58:25.299Z,11.68
2017-04-12T08:58:50.795Z,11.75
2017-04-12T08:59:16.283Z,11.72
2017-04-12T08:59:41.773Z,11.72
2017-04-12T09:00:07.249Z,11.9
2017-04-12T09:00:32.731Z,11.8
2017-04-12T09:00:58.231Z,11.7
2017-04-12T09:01:23.731Z,11.69
2017-04-12T09:01:49.234Z,11.7
2017-04-12T09:02:14.765Z,11.72
2017-04-12T09:02:40.198Z,11.75
2017-04-12T09:03:05.677Z,11.55
2017-04-12T09:03:31.719Z,11.68
2017-04-12T09:03:57.209Z,11.7
2017-04-12T09:04:22.696Z,11.63
2017-04-12T09:04:48.213Z,11.68
2017-04-12T09:05:13.701Z,11.7
2017-04-12T09:05:39.187Z,11.7
2017-04-12T09:06:04.691Z,11.65
2017-04-12T09:06:30.188Z,11.62
2017-04-12T09:06:55.654Z,11.66
2017-04-12T09:07:21.141Z,11.62
2017-04-12T09:07:46.645Z,11.69
2017-04-12T09:08:12.143Z,11.69
2017-04-12T09:08:37.636Z,11.7
2017-04-12T09:09:03.120Z,11.66
2017-04-12T09:09:28.634Z,11.72
2017-04-12T09:09:54.128Z,11.68
2017-04-12T09:10:19.611Z,11.73
2017-04-12T09:10:45.087Z,11.81
2017-04-12T09:11:10.564Z,11.81
2017-04-12T09:11:36.040Z,11.86
2017-04-12T09:12:01.550Z,11.94
2017-04-12T09:12:27.027Z,11.91
2017-04-12T09:12:52.508Z,11.99
2017-04-12T09:13:18.007Z,12.04
2017-04-12T09:13:43.516Z,12.07
2017-04-12T09:14:09.003Z,12.1
2017-04-12T09:14:34.483Z,12.09
2017-04-12T09:14:59.990Z,12.06
2017-04-12T09:15:25.507Z,12.09
2017-04-12T09:15:51.001Z,12.18
2017-04-12T09:16:16.499Z,12.13
2017-04-12T09:16:41.971Z,12.18
2017-04-12T09:17:07.446Z,12.28
2017-04-12T09:17:32.923Z,12.25
2017-04-12T09:17:58.421Z,12.22
2017-04-12T09:18:23.921Z,12.22
2017-04-12T09:18:49.434Z,12.35
2017-04-12T09:19:14.919Z,12.27
2017-04-12T09:19:40.397Z,12.32
2017-04-12T09:20:05.898Z,12.27
2017-04-12T09:20:31.456Z,12.27
2017-04-12T09:20:56.956Z,12.2
2017-04-12T09:21:22.469Z,12.25
2017-04-12T09:21:47.954Z,12.22
2017-04-12T09:22:13.534Z,12.25
2017-04-12T09:22:39.014Z,12.28
2017-04-12T09:23:04.595Z,12.35
2017-04-12T09:23:30.079Z,12.36
2017-04-12T09:23:55.632Z,12.37
2017-04-12T09:24:21.139Z,12.35
2017-04-12T09:24:46.642Z,12.31
2017-04-12T09:25:12.193Z,12.31
2017-04-12T09:25:37.676Z,12.27
2017-04-12T09:26:03.208Z,12.28
2017-04-12T09:26:28.745Z,12.32
2017-04-12T09:26:54.260Z,12.36
2017-04-12T09:27:19.740Z,12.29
2017-04-12T09:27:45.260Z,12.43
2017-04-12T09:28:10.758Z,12.47
2017-04-12T09:28:36.283Z,12.47
2017-04-12T09:29:01.752Z,12.61
2017-04-12T09:29:27.272Z,12.57
2017-04-12T09:29:52.831Z,12.6
2017-04-12T09:30:18.344Z,12.62
2017-04-12T09:30:43.898Z,12.6
2017-04-12T09:31:09.375Z,12.62
2017-04-12T09:31:35.059Z,12.6
2017-04-12T09:32:00.600Z,12.62
2017-04-12T09:32:26.140Z,12.55
2017-04-12T09:32:51.641Z,12.58
2017-04-12T09:33:17.141Z,12.57
2017-04-12T09:33:42.651Z,12.58
2017-04-12T09:34:08.192Z,12.64
2017-04-12T09:34:33.706Z,12.58
2017-04-12T09:34:59.208Z,12.58
2017-04-12T09:35:24.723Z,12.64
2017-04-12T09:35:50.214Z,12.6